Terminal Aerodrome Forecast
Issued by NWS

Home | Current Version | Previous Version | Text Only | Print | Product List | Glossary Off
Versions: 1 2 3 4 5 6 7 8 9 10 11 12 13 14 15 16 17 18 19 20 21 22 23 24 25 26 27

000
FTUS43 KGRB 190900 AAA
TAFCWA
TAF AMD
KCWA 190924Z 1909/2006 19006KT 4SM BR SCT003 BKN009
      TEMPO 1909/1913 1/4SM FG VV001
     FM191400 26005KT 5SM BR BKN018
     FM191800 29006KT P6SM VCSH BKN035
      TEMPO 1919/1923 2SM +TSRA BR BKN022CB
     FM200300 32003KT 2SM BR BKN008
      AMD LTD TO CLD VIS AND WIND TIL 191200=

USA.gov is the U.S. government's official web portal to all federal, state and local government web resources and services.